Terminal Aerodrome Forecast
Issued by NWS Sterling, VA

Home | Current Version | Previous Version | Text Only | Print | Product List | Glossary On
Versions: 1 2 3 4 5 6 7 8 9 10 11 12 13 14 15 16 17 18 19 20 21 22 23
788
FTUS41 KLWX 062102 AAB
TAFBWI
TAF AMD
KBWI 062102Z 0621/0724 03007KT 2SM RA OVC008
     FM070400 01006KT 5SM BR OVC008
     FM071200 32005KT P6SM BKN050
     FM071500 32009KT P6SM BKN050
     FM071800 31009KT P6SM SCT200=

USA.gov is the U.S. government's official web portal to all federal, state and local government web resources and services.